sensor_id;sensor_type;location;lat;lon;timestamp;pressure;altitude;pressure_sealevel;temperature;humidity
75697;BME280;64312;44.738;20.612;2023-02-01T00:00:02;100748.34;;;2.78;71.29
75697;BME280;64312;44.738;20.612;2023-02-01T00:02:30;100738.28;;;2.81;71.82
75697;BME280;64312;44.738;20.612;2023-02-01T00:04:56;100746.84;;;2.85;70.95
75697;BME280;64312;44.738;20.612;2023-02-01T00:07:22;100743.47;;;2.83;70.81
75697;BME280;64312;44.738;20.612;2023-02-01T00:09:47;100742.25;;;2.87;71.03
75697;BME280;64312;44.738;20.612;2023-02-01T00:12:13;100748.41;;;2.87;69.87
75697;BME280;64312;44.738;20.612;2023-02-01T00:14:38;100745.03;;;2.85;69.85
75697;BME280;64312;44.738;20.612;2023-02-01T00:17:06;100743.22;;;2.86;69.98
75697;BME280;64312;44.738;20.612;2023-02-01T00:19:32;100745.03;;;2.85;70.31
75697;BME280;64312;44.738;20.612;2023-02-01T00:21:58;100743.22;;;2.86;70.48
75697;BME280;64312;44.738;20.612;2023-02-01T00:24:23;100755.97;;;2.92;69.79
75697;BME280;64312;44.738;20.612;2023-02-01T00:26:49;100754.16;;;2.92;69.71
75697;BME280;64312;44.738;20.612;2023-02-01T00:29:18;100758.66;;;2.92;68.90
75697;BME280;64312;44.738;20.612;2023-02-01T00:31:45;100760.59;;;2.90;69.44
75697;BME280;64312;44.738;20.612;2023-02-01T00:34:15;100755.97;;;2.92;69.45
75697;BME280;64312;44.738;20.612;2023-02-01T00:36:42;100755.59;;;2.96;69.47
75697;BME280;64312;44.738;20.612;2023-02-01T00:39:09;100761.63;;;2.98;69.46
75697;BME280;64312;44.738;20.612;2023-02-01T00:41:35;100764.84;;;3.02;69.70
75697;BME280;64312;44.738;20.612;2023-02-01T00:44:01;100762.78;;;3.06;70.28
75697;BME280;64312;44.738;20.612;2023-02-01T00:46:29;100759.97;;;3.07;70.23
75697;BME280;64312;44.738;20.612;2023-02-01T00:48:55;100766.88;;;3.10;69.78
75697;BME280;64312;44.738;20.612;2023-02-01T00:51:24;100765.75;;;3.12;70.21
75697;BME280;64312;44.738;20.612;2023-02-01T00:53:50;100764.91;;;3.12;69.45
75697;BME280;64312;44.738;20.612;2023-02-01T00:56:16;100772.75;;;3.13;70.15
75697;BME280;64312;44.738;20.612;2023-02-01T00:58:43;100770.09;;;3.13;70.14
75697;BME280;64312;44.738;20.612;2023-02-01T01:01:11;100769.25;;;3.13;69.33
75697;BME280;64312;44.738;20.612;2023-02-01T01:03:40;100772.88;;;3.12;69.68
75697;BME280;64312;44.738;20.612;2023-02-01T01:06:09;100769.94;;;3.15;69.59
75697;BME280;64312;44.738;20.612;2023-02-01T01:08:36;100767.16;;;3.16;69.45
75697;BME280;64312;44.738;20.612;2023-02-01T01:11:23;100748.56;;;3.16;69.71
75697;BME280;64312;44.738;20.612;2023-02-01T01:13:51;100750.09;;;3.19;69.11
75697;BME280;64312;44.738;20.612;2023-02-01T01:16:18;100747.16;;;3.22;69.19
75697;BME280;64312;44.738;20.612;2023-02-01T01:18:45;100739.16;;;3.22;69.70
75697;BME280;64312;44.738;20.612;2023-02-01T01:21:12;100731.91;;;3.24;69.19
75697;BME280;64312;44.738;20.612;2023-02-01T01:23:39;100723.19;;;3.22;69.77
75697;BME280;64312;44.738;20.612;2023-02-01T01:26:07;100707.53;;;3.19;69.25
75697;BME280;64312;44.738;20.612;2023-02-01T01:28:33;100710.78;;;3.22;68.86
75697;BME280;64312;44.738;20.612;2023-02-01T01:30:58;100719.59;;;3.23;68.37
75697;BME280;64312;44.738;20.612;2023-02-01T01:33:24;100709.91;;;3.22;67.63
75697;BME280;64312;44.738;20.612;2023-02-01T01:35:50;100701.75;;;3.14;66.32
75697;BME280;64312;44.738;20.612;2023-02-01T01:38:16;100696.59;;;3.12;66.79
75697;BME280;64312;44.738;20.612;2023-02-01T01:40:44;100698.00;;;3.16;66.94
75697;BME280;64312;44.738;20.612;2023-02-01T01:43:15;100698.84;;;3.17;66.29
75697;BME280;64312;44.738;20.612;2023-02-01T01:45:42;100699.94;;;3.14;66.57
75697;BME280;64312;44.738;20.612;2023-02-01T01:51:01;100697.81;;;3.08;66.18
75697;BME280;64312;44.738;20.612;2023-02-01T01:53:38;100711.41;;;3.15;66.15
75697;BME280;64312;44.738;20.612;2023-02-01T01:56:06;100707.66;;;3.17;65.78
75697;BME280;64312;44.738;20.612;2023-02-01T01:58:32;100709.50;;;3.17;65.89
75697;BME280;64312;44.738;20.612;2023-02-01T02:00:59;100693.63;;;3.15;66.33
75697;BME280;64312;44.738;20.612;2023-02-01T02:03:32;100714.28;;;3.23;66.55
75697;BME280;64312;44.738;20.612;2023-02-01T02:06:01;100700.13;;;3.22;66.21
75697;BME280;64312;44.738;20.612;2023-02-01T02:08:28;100708.13;;;3.32;66.69
75697;BME280;64312;44.738;20.612;2023-02-01T02:10:53;100691.03;;;3.35;67.10
75697;BME280;64312;44.738;20.612;2023-02-01T02:13:31;100696.78;;;3.40;67.07
75697;BME280;64312;44.738;20.612;2023-02-01T02:36:01;100703.00;;;3.50;66.31
75697;BME280;64312;44.738;20.612;2023-02-01T02:38:11;100690.66;;;3.49;65.67
75697;BME280;64312;44.738;20.612;2023-02-01T02:41:05;100693.19;;;3.50;66.47
75697;BME280;64312;44.738;20.612;2023-02-01T02:43:56;100681.69;;;3.50;65.51
75697;BME280;64312;44.738;20.612;2023-02-01T02:46:48;100686.72;;;3.53;65.49
75697;BME280;64312;44.738;20.612;2023-02-01T02:49:49;100681.56;;;3.51;65.33
75697;BME280;64312;44.738;20.612;2023-02-01T02:52:41;100661.50;;;3.47;65.83
75697;BME280;64312;44.738;20.612;2023-02-01T02:55:29;100685.50;;;3.57;65.94
75697;BME280;64312;44.738;20.612;2023-02-01T02:57:56;100687.31;;;3.57;66.20
75697;BME280;64312;44.738;20.612;2023-02-01T03:00:42;100673.03;;;3.48;66.54
75697;BME280;64312;44.738;20.612;2023-02-01T03:03:27;100681.28;;;3.55;66.02
75697;BME280;64312;44.738;20.612;2023-02-01T03:06:16;100672.59;;;3.52;66.53
75697;BME280;64312;44.738;20.612;2023-02-01T03:08:44;100679.59;;;3.53;65.96
75697;BME280;64312;44.738;20.612;2023-02-01T03:11:15;100678.06;;;3.51;66.15
75697;BME280;64312;44.738;20.612;2023-02-01T03:13:59;100662.09;;;3.51;66.45
75697;BME280;64312;44.738;20.612;2023-02-01T03:16:41;100662.63;;;3.45;66.47
75697;BME280;64312;44.738;20.612;2023-02-01T03:19:17;100672.16;;;3.47;66.11
75697;BME280;64312;44.738;20.612;2023-02-01T03:21:52;100668.94;;;3.44;67.13
75697;BME280;64312;44.738;20.612;2023-02-01T03:26:52;100662.06;;;3.32;67.40
75697;BME280;64312;44.738;20.612;2023-02-01T03:29:44;100667.66;;;3.29;67.45
75697;BME280;64312;44.738;20.612;2023-02-01T03:32:11;100682.91;;;3.26;67.08
75697;BME280;64312;44.738;20.612;2023-02-01T03:34:38;100672.66;;;3.22;67.27
75697;BME280;64312;44.738;20.612;2023-02-01T03:37:08;100673.09;;;3.17;67.12
75697;BME280;64312;44.738;20.612;2023-02-01T03:39:59;100666.91;;;3.17;67.35
75697;BME280;64312;44.738;20.612;2023-02-01T03:42:43;100673.91;;;3.18;67.13
75697;BME280;64312;44.738;20.612;2023-02-01T03:45:14;100663.13;;;3.19;67.26
75697;BME280;64312;44.738;20.612;2023-02-01T03:47:48;100649.97;;;3.18;67.51
75697;BME280;64312;44.738;20.612;2023-02-01T03:50:20;100646.34;;;3.19;66.81
75697;BME280;64312;44.738;20.612;2023-02-01T03:52:55;100642.16;;;3.16;66.75
75697;BME280;64312;44.738;20.612;2023-02-01T03:55:23;100635.41;;;3.12;67.30
75697;BME280;64312;44.738;20.612;2023-02-01T03:57:57;100644.50;;;3.10;67.21
75697;BME280;64312;44.738;20.612;2023-02-01T04:00:26;100634.53;;;3.02;67.42
75697;BME280;64312;44.738;20.612;2023-02-01T04:02:54;100635.78;;;2.98;67.51
75697;BME280;64312;44.738;20.612;2023-02-01T04:05:20;100650.91;;;2.97;67.80
75697;BME280;64312;44.738;20.612;2023-02-01T04:07:53;100633.81;;;2.90;67.63
75697;BME280;64312;44.738;20.612;2023-02-01T04:10:19;100646.56;;;2.96;68.62
75697;BME280;64312;44.738;20.612;2023-02-01T04:12:45;100637.47;;;2.99;67.81
75697;BME280;64312;44.738;20.612;2023-02-01T04:15:11;100625.00;;;2.99;68.22
75697;BME280;64312;44.738;20.612;2023-02-01T04:17:36;100629.19;;;3.02;68.38
75697;BME280;64312;44.738;20.612;2023-02-01T04:20:02;100628.09;;;3.05;68.32
75697;BME280;64312;44.738;20.612;2023-02-01T04:22:30;100616.19;;;3.09;67.87
75697;BME280;64312;44.738;20.612;2023-02-01T04:24:56;100616.91;;;3.11;67.68
75697;BME280;64312;44.738;20.612;2023-02-01T04:27:21;100626.59;;;3.12;68.14
75697;BME280;64312;44.738;20.612;2023-02-01T04:29:47;100630.09;;;3.12;68.01
75697;BME280;64312;44.738;20.612;2023-02-01T04:32:15;100623.78;;;3.13;67.94
75697;BME280;64312;44.738;20.612;2023-02-01T04:34:41;100626.28;;;3.15;68.22
75697;BME280;64312;44.738;20.612;2023-02-01T04:37:07;100636.09;;;3.14;67.97
75697;BME280;64312;44.738;20.612;2023-02-01T04:39:33;100637.06;;;3.13;68.01
75697;BME280;64312;44.738;20.612;2023-02-01T04:41:58;100643.09;;;3.15;67.33
75697;BME280;64312;44.738;20.612;2023-02-01T04:44:25;100643.22;;;3.14;67.33
75697;BME280;64312;44.738;20.612;2023-02-01T04:46:50;100646.63;;;3.16;67.11
75697;BME280;64312;44.738;20.612;2023-02-01T04:49:16;100656.00;;;3.20;66.98
75697;BME280;64312;44.738;20.612;2023-02-01T04:51:42;100648.41;;;3.15;67.32
75697;BME280;64312;44.738;20.612;2023-02-01T04:54:08;100651.50;;;3.20;67.32
75697;BME280;64312;44.738;20.612;2023-02-01T04:56:36;100661.16;;;3.21;66.50
75697;BME280;64312;44.738;20.612;2023-02-01T04:59:02;100669.03;;;3.23;66.86
75697;BME280;64312;44.738;20.612;2023-02-01T05:01:28;100675.06;;;3.25;65.78
75697;BME280;64312;44.738;20.612;2023-02-01T05:03:54;100665.09;;;3.27;65.15
75697;BME280;64312;44.738;20.612;2023-02-01T05:06:20;100661.06;;;3.33;64.86
75697;BME280;64312;44.738;20.612;2023-02-01T05:08:46;100673.38;;;3.34;64.29
75697;BME280;64312;44.738;20.612;2023-02-01T05:11:11;100670.72;;;3.34;64.16
75697;BME280;64312;44.738;20.612;2023-02-01T05:13:58;100661.06;;;3.33;64.14
75697;BME280;64312;44.738;20.612;2023-02-01T05:16:24;100661.75;;;3.35;63.81
75697;BME280;64312;44.738;20.612;2023-02-01T05:18:50;100658.00;;;3.37;63.25
75697;BME280;64312;44.738;20.612;2023-02-01T05:21:15;100656.31;;;3.36;63.90
75697;BME280;64312;44.738;20.612;2023-02-01T05:23:42;100657.84;;;3.39;64.07
75697;BME280;64312;44.738;20.612;2023-02-01T05:26:26;100660.53;;;3.39;63.31
75697;BME280;64312;44.738;20.612;2023-02-01T05:28:51;100657.59;;;3.42;64.15
75697;BME280;64312;44.738;20.612;2023-02-01T05:31:17;100657.59;;;3.42;63.88
75697;BME280;64312;44.738;20.612;2023-02-01T05:33:43;100659.38;;;3.41;63.54
75697;BME280;64312;44.738;20.612;2023-02-01T05:36:09;100659.53;;;3.40;62.86
75697;BME280;64312;44.738;20.612;2023-02-01T05:38:34;100663.75;;;3.42;62.67
75697;BME280;64312;44.738;20.612;2023-02-01T05:41:00;100660.97;;;3.44;61.83
75697;BME280;64312;44.738;20.612;2023-02-01T05:43:26;100659.97;;;3.45;61.98
75697;BME280;64312;44.738;20.612;2023-02-01T05:45:52;100665.59;;;3.42;62.10
75697;BME280;64312;44.738;20.612;2023-02-01T05:48:18;100669.78;;;3.44;61.70
75697;BME280;64312;44.738;20.612;2023-02-01T05:50:44;100658.16;;;3.45;61.38
75697;BME280;64312;44.738;20.612;2023-02-01T05:53:09;100664.47;;;3.44;61.72
75697;BME280;64312;44.738;20.612;2023-02-01T05:55:36;100664.47;;;3.44;60.89
75697;BME280;64312;44.738;20.612;2023-02-01T05:58:02;100657.59;;;3.42;61.27
75697;BME280;64312;44.738;20.612;2023-02-01T06:00:28;100654.34;;;3.38;60.49
75697;BME280;64312;44.738;20.612;2023-02-01T06:02:54;100657.16;;;3.37;59.70
75697;BME280;64312;44.738;20.612;2023-02-01T06:05:20;100667.09;;;3.35;60.08
75697;BME280;64312;44.738;20.612;2023-02-01T06:07:46;100669.34;;;3.30;60.00
75697;BME280;64312;44.738;20.612;2023-02-01T06:10:12;100679.25;;;3.28;59.86
75697;BME280;64312;44.738;20.612;2023-02-01T06:12:38;100681.22;;;3.25;60.49
75697;BME280;64312;44.738;20.612;2023-02-01T06:15:04;100685.69;;;3.25;59.79
75697;BME280;64312;44.738;20.612;2023-02-01T06:17:30;100679.25;;;3.28;59.51
75697;BME280;64312;44.738;20.612;2023-02-01T06:19:56;100688.81;;;3.30;59.23
75697;BME280;64312;44.738;20.612;2023-02-01T06:22:22;100680.69;;;3.32;59.07
75697;BME280;64312;44.738;20.612;2023-02-01T06:24:48;100683.91;;;3.35;58.72
75697;BME280;64312;44.738;20.612;2023-02-01T06:27:14;100694.97;;;3.40;59.24
75697;BME280;64312;44.738;20.612;2023-02-01T06:29:40;100705.50;;;3.42;59.12
75697;BME280;64312;44.738;20.612;2023-02-01T06:32:06;100706.06;;;3.45;57.86
75697;BME280;64312;44.738;20.612;2023-02-01T06:34:32;100709.31;;;3.49;57.03
75697;BME280;64312;44.738;20.612;2023-02-01T06:36:58;100707.03;;;3.54;57.55
75697;BME280;64312;44.738;20.612;2023-02-01T06:39:24;100700.34;;;3.60;56.92
75697;BME280;64312;44.738;20.612;2023-02-01T06:41:49;100714.53;;;3.70;57.03
75697;BME280;64312;44.738;20.612;2023-02-01T06:44:16;100731.63;;;3.77;56.98
75697;BME280;64312;44.738;20.612;2023-02-01T06:46:42;100727.56;;;3.83;55.92
75697;BME280;64312;44.738;20.612;2023-02-01T06:49:08;100733.19;;;3.89;55.91
75697;BME280;64312;44.738;20.612;2023-02-01T06:51:34;100736.13;;;3.96;55.86
75697;BME280;64312;44.738;20.612;2023-02-01T06:54:00;100745.53;;;4.00;55.53
75697;BME280;64312;44.738;20.612;2023-02-01T06:56:25;100745.25;;;4.03;55.63
75697;BME280;64312;44.738;20.612;2023-02-01T06:58:51;100745.09;;;4.04;54.45
75697;BME280;64312;44.738;20.612;2023-02-01T07:01:17;100742.19;;;4.07;55.08
75697;BME280;64312;44.738;20.612;2023-02-01T07:03:47;100732.22;;;4.10;55.47
75697;BME280;64312;44.738;20.612;2023-02-01T07:06:12;100753.13;;;4.14;55.79
75697;BME280;64312;44.738;20.612;2023-02-01T07:08:38;100748.47;;;4.16;55.33
75697;BME280;64312;44.738;20.612;2023-02-01T07:11:10;100756.06;;;4.21;55.59
75697;BME280;64312;44.738;20.612;2023-02-01T07:13:36;100744.41;;;4.22;55.04
75697;BME280;64312;44.738;20.612;2023-02-01T07:16:08;100753.09;;;4.24;55.20
75697;BME280;64312;44.738;20.612;2023-02-01T07:18:34;100760.09;;;4.25;55.09
75697;BME280;64312;44.738;20.612;2023-02-01T07:21:00;100761.81;;;4.26;54.91
75697;BME280;64312;44.738;20.612;2023-02-01T07:23:27;100768.53;;;4.30;55.51
75697;BME280;64312;44.738;20.612;2023-02-01T07:25:54;100774.59;;;4.32;54.58
75697;BME280;64312;44.738;20.612;2023-02-01T07:28:20;100759.97;;;4.36;54.60
75697;BME280;64312;44.738;20.612;2023-02-01T07:30:46;100772.03;;;4.40;54.80
75697;BME280;64312;44.738;20.612;2023-02-01T07:33:21;100770.75;;;4.44;55.05
75697;BME280;64312;44.738;20.612;2023-02-01T07:35:48;100750.00;;;4.48;54.59
75697;BME280;64312;44.738;20.612;2023-02-01T07:38:14;100758.56;;;4.51;54.80
75697;BME280;64312;44.738;20.612;2023-02-01T07:40:40;100774.13;;;4.56;54.24
75697;BME280;64312;44.738;20.612;2023-02-01T07:43:06;100769.50;;;4.58;54.53
75697;BME280;64312;44.738;20.612;2023-02-01T07:45:34;100775.38;;;4.61;54.13
75697;BME280;64312;44.738;20.612;2023-02-01T07:48:00;100770.63;;;4.65;54.53
75697;BME280;64312;44.738;20.612;2023-02-01T07:50:26;100772.84;;;4.70;54.73
75697;BME280;64312;44.738;20.612;2023-02-01T07:52:51;100772.28;;;4.76;54.59
75697;BME280;64312;44.738;20.612;2023-02-01T07:55:19;100766.50;;;4.80;54.95
75697;BME280;64312;44.738;20.612;2023-02-01T07:57:45;100775.09;;;4.84;54.43
75697;BME280;64312;44.738;20.612;2023-02-01T08:00:11;100774.63;;;4.88;54.25
75697;BME280;64312;44.738;20.612;2023-02-01T08:03:00;100774.91;;;4.95;54.75
75697;BME280;64312;44.738;20.612;2023-02-01T08:05:25;100771.81;;;5.00;54.50
75697;BME280;64312;44.738;20.612;2023-02-01T08:07:51;100760.56;;;5.06;54.75
75697;BME280;64312;44.738;20.612;2023-02-01T08:10:18;100758.28;;;5.11;54.21
75697;BME280;64312;44.738;20.612;2023-02-01T08:12:45;100752.38;;;5.17;54.37
75697;BME280;64312;44.738;20.612;2023-02-01T08:15:17;100756.28;;;5.23;54.68
75697;BME280;64312;44.738;20.612;2023-02-01T08:17:48;100763.41;;;5.32;55.78
75697;BME280;64312;44.738;20.612;2023-02-01T08:20:14;100765.91;;;5.43;55.32
75697;BME280;64312;44.738;20.612;2023-02-01T08:22:40;100760.50;;;5.53;55.82
75697;BME280;64312;44.738;20.612;2023-02-01T08:25:06;100759.63;;;5.62;55.42
75697;BME280;64312;44.738;20.612;2023-02-01T08:27:33;100759.69;;;5.70;55.13
75697;BME280;64312;44.738;20.612;2023-02-01T08:29:59;100764.44;;;5.76;55.79
75697;BME280;64312;44.738;20.612;2023-02-01T08:32:26;100755.84;;;5.82;55.83
75697;BME280;64312;44.738;20.612;2023-02-01T08:34:52;100756.22;;;5.87;55.49
75697;BME280;64312;44.738;20.612;2023-02-01T08:37:18;100752.16;;;5.93;55.17
75697;BME280;64312;44.738;20.612;2023-02-01T08:39:43;100753.50;;;5.97;54.98
75697;BME280;64312;44.738;20.612;2023-02-01T08:42:10;100747.56;;;6.03;55.12
75697;BME280;64312;44.738;20.612;2023-02-01T08:44:55;100754.81;;;6.11;54.70
75697;BME280;64312;44.738;20.612;2023-02-01T08:47:21;100762.53;;;6.14;54.81
75697;BME280;64312;44.738;20.612;2023-02-01T08:49:47;100752.00;;;6.12;54.06
75697;BME280;64312;44.738;20.612;2023-02-01T08:52:13;100766.56;;;6.18;54.33
75697;BME280;64312;44.738;20.612;2023-02-01T08:54:38;100764.06;;;6.16;53.50
75697;BME280;64312;44.738;20.612;2023-02-01T08:57:07;100763.44;;;6.22;53.49
75697;BME280;64312;44.738;20.612;2023-02-01T08:59:34;100766.13;;;6.22;52.55
75697;BME280;64312;44.738;20.612;2023-02-01T09:02:00;100764.28;;;6.23;51.98
75697;BME280;64312;44.738;20.612;2023-02-01T09:04:26;100771.03;;;6.27;52.82
75697;BME280;64312;44.738;20.612;2023-02-01T09:06:52;100774.59;;;6.36;53.08
75697;BME280;64312;44.738;20.612;2023-02-01T09:09:22;100777.81;;;6.39;51.57
75697;BME280;64312;44.738;20.612;2023-02-01T09:11:47;100777.50;;;6.42;51.93
75697;BME280;64312;44.738;20.612;2023-02-01T09:14:15;100784.16;;;6.38;51.25
75697;BME280;64312;44.738;20.612;2023-02-01T09:16:40;100777.97;;;6.38;51.90
75697;BME280;64312;44.738;20.612;2023-02-01T09:19:06;100779.50;;;6.40;51.84
75697;BME280;64312;44.738;20.612;2023-02-01T09:21:31;100781.34;;;6.40;51.81
75697;BME280;64312;44.738;20.612;2023-02-01T09:23:57;100786.00;;;6.38;50.90
75697;BME280;64312;44.738;20.612;2023-02-01T09:26:24;100782.31;;;6.39;50.92
75697;BME280;64312;44.738;20.612;2023-02-01T09:28:51;100780.88;;;6.44;50.95
75697;BME280;64312;44.738;20.612;2023-02-01T09:31:17;100781.84;;;6.43;49.10
75697;BME280;64312;44.738;20.612;2023-02-01T09:33:43;100775.81;;;6.41;50.18
75697;BME280;64312;44.738;20.612;2023-02-01T09:36:09;100774.97;;;6.41;50.32
75697;BME280;64312;44.738;20.612;2023-02-01T09:38:34;100778.50;;;6.41;50.49
75697;BME280;64312;44.738;20.612;2023-02-01T09:41:00;100769.31;;;6.44;50.92
75697;BME280;64312;44.738;20.612;2023-02-01T09:43:55;100765.19;;;6.49;51.40
75697;BME280;64312;44.738;20.612;2023-02-01T09:46:29;100758.38;;;6.55;51.06
75697;BME280;64312;44.738;20.612;2023-02-01T09:49:00;100758.69;;;6.70;51.12
75697;BME280;64312;44.738;20.612;2023-02-01T09:51:38;100747.03;;;6.79;50.91
75697;BME280;64312;44.738;20.612;2023-02-01T09:54:23;100756.47;;;6.91;50.42
75697;BME280;64312;44.738;20.612;2023-02-01T10:00:19;100749.66;;;6.97;50.08
75697;BME280;64312;44.738;20.612;2023-02-01T10:02:47;100729.72;;;6.91;49.84
75697;BME280;64312;44.738;20.612;2023-02-01T10:05:15;100739.47;;;7.00;49.83
75697;BME280;64312;44.738;20.612;2023-02-01T10:07:51;100735.00;;;7.09;50.10
75697;BME280;64312;44.738;20.612;2023-02-01T10:15:47;100737.31;;;7.38;49.38
75697;BME280;64312;44.738;20.612;2023-02-01T10:26:22;100722.81;;;7.49;47.53
75697;BME280;64312;44.738;20.612;2023-02-01T10:29:00;100724.84;;;7.55;48.69
75697;BME280;64312;44.738;20.612;2023-02-01T10:31:29;100714.25;;;7.53;48.65
75697;BME280;64312;44.738;20.612;2023-02-01T10:33:58;100718.13;;;7.59;48.57
75697;BME280;64312;44.738;20.612;2023-02-01T10:36:57;100715.97;;;7.63;48.16
75697;BME280;64312;44.738;20.612;2023-02-01T10:39:25;100716.47;;;7.66;48.83
75697;BME280;64312;44.738;20.612;2023-02-01T10:41:51;100717.66;;;7.64;47.66
75697;BME280;64312;44.738;20.612;2023-02-01T10:44:23;100709.59;;;7.64;47.99
75697;BME280;64312;44.738;20.612;2023-02-01T10:46:51;100703.25;;;7.65;48.54
75697;BME280;64312;44.738;20.612;2023-02-01T10:49:29;100696.22;;;7.64;48.97
75697;BME280;64312;44.738;20.612;2023-02-01T10:52:12;100698.41;;;7.68;48.54
75697;BME280;64312;44.738;20.612;2023-02-01T10:54:40;100700.25;;;7.68;48.51
75697;BME280;64312;44.738;20.612;2023-02-01T10:57:26;100708.97;;;7.70;48.14
75697;BME280;64312;44.738;20.612;2023-02-01T10:59:53;100713.00;;;7.74;47.75
75697;BME280;64312;44.738;20.612;2023-02-01T11:02:31;100708.63;;;7.73;47.79
75697;BME280;64312;44.738;20.612;2023-02-01T11:05:00;100709.66;;;7.80;48.83
75697;BME280;64312;44.738;20.612;2023-02-01T11:07:26;100710.16;;;7.83;49.08
75697;BME280;64312;44.738;20.612;2023-02-01T11:09:54;100706.81;;;7.90;48.64
75697;BME280;64312;44.738;20.612;2023-02-01T11:12:37;100700.13;;;7.94;48.52
75697;BME280;64312;44.738;20.612;2023-02-01T11:15:18;100687.56;;;7.94;48.72
75697;BME280;64312;44.738;20.612;2023-02-01T11:17:46;100686.38;;;7.97;49.04
75697;BME280;64312;44.738;20.612;2023-02-01T11:20:18;100682.88;;;7.96;48.93
75697;BME280;64312;44.738;20.612;2023-02-01T11:22:48;100676.53;;;8.05;49.01
75697;BME280;64312;44.738;20.612;2023-02-01T11:25:18;100674.69;;;8.14;48.93
75697;BME280;64312;44.738;20.612;2023-02-01T11:27:44;100682.88;;;8.21;48.48
75697;BME280;64312;44.738;20.612;2023-02-01T11:33:00;100666.13;;;8.43;49.57
75697;BME280;64312;44.738;20.612;2023-02-01T11:35:28;100660.63;;;8.45;47.86
75697;BME280;64312;44.738;20.612;2023-02-01T11:37:57;100656.41;;;8.42;47.72
75697;BME280;64312;44.738;20.612;2023-02-01T11:40:37;100634.94;;;8.34;48.33
75697;BME280;64312;44.738;20.612;2023-02-01T11:45:32;100639.31;;;8.43;46.81
75697;BME280;64312;44.738;20.612;2023-02-01T11:48:00;100632.28;;;8.50;46.61
75697;BME280;64312;44.738;20.612;2023-02-01T12:07:27;100616.66;;;8.54;46.63
75697;BME280;64312;44.738;20.612;2023-02-01T12:10:09;100618.31;;;8.55;45.84
75697;BME280;64312;44.738;20.612;2023-02-01T12:24:31;100597.91;;;8.46;46.48
75697;BME280;64312;44.738;20.612;2023-02-01T12:34:34;100570.09;;;8.38;45.66
75697;BME280;64312;44.738;20.612;2023-02-01T12:37:13;100563.19;;;8.36;45.56
75697;BME280;64312;44.738;20.612;2023-02-01T12:40:13;100567.69;;;8.44;45.86
75697;BME280;64312;44.738;20.612;2023-02-01T12:42:57;100572.06;;;8.53;45.07
75697;BME280;64312;44.738;20.612;2023-02-01T12:47:56;100568.81;;;8.65;45.91
75697;BME280;64312;44.738;20.612;2023-02-01T12:50:31;100565.44;;;8.72;44.87
75697;BME280;64312;44.738;20.612;2023-02-01T12:53:14;100552.84;;;8.72;44.22
75697;BME280;64312;44.738;20.612;2023-02-01T12:55:50;100567.25;;;8.79;44.30
75697;BME280;64312;44.738;20.612;2023-02-01T12:58:41;100560.53;;;8.83;44.78
75697;BME280;64312;44.738;20.612;2023-02-01T13:01:28;100568.59;;;8.83;44.19
75697;BME280;64312;44.738;20.612;2023-02-01T13:06:53;100560.53;;;8.83;43.43
75697;BME280;64312;44.738;20.612;2023-02-01T13:09:24;100557.50;;;8.86;44.66
75697;BME280;64312;44.738;20.612;2023-02-01T13:11:53;100561.19;;;8.85;43.56
75697;BME280;64312;44.738;20.612;2023-02-01T13:14:30;100548.28;;;8.81;43.46
75697;BME280;64312;44.738;20.612;2023-02-01T13:17:04;100549.28;;;8.80;42.53
75697;BME280;64312;44.738;20.612;2023-02-01T13:19:49;100549.13;;;8.81;43.17
75697;BME280;64312;44.738;20.612;2023-02-01T13:24:56;100536.88;;;8.79;41.48
75697;BME280;64312;44.738;20.612;2023-02-01T13:27:26;100538.94;;;8.77;42.13
75697;BME280;64312;44.738;20.612;2023-02-01T13:29:56;100533.25;;;8.72;41.40
75697;BME280;64312;44.738;20.612;2023-02-01T13:35:13;100546.78;;;8.78;41.88
75697;BME280;64312;44.738;20.612;2023-02-01T13:38:41;100544.59;;;8.82;42.59
75697;BME280;64312;44.738;20.612;2023-02-01T13:40:39;100533.16;;;8.88;43.60
75697;BME280;64312;44.738;20.612;2023-02-01T13:43:27;100542.84;;;8.97;43.58
75697;BME280;64312;44.738;20.612;2023-02-01T13:46:04;100542.97;;;9.04;43.18
75697;BME280;64312;44.738;20.612;2023-02-01T13:48:47;100534.09;;;9.03;42.19
75697;BME280;64312;44.738;20.612;2023-02-01T13:51:15;100543.31;;;9.01;41.38
75697;BME280;64312;44.738;20.612;2023-02-01T13:53:47;100536.59;;;9.05;41.96
75697;BME280;64312;44.738;20.612;2023-02-01T13:56:17;100522.78;;;9.08;42.48
75697;BME280;64312;44.738;20.612;2023-02-01T13:58:46;100536.72;;;9.11;41.22
75697;BME280;64312;44.738;20.612;2023-02-01T14:11:47;100507.81;;;9.13;41.15
75697;BME280;64312;44.738;20.612;2023-02-01T14:19:26;100463.72;;;9.31;42.73
75697;BME280;64312;44.738;20.612;2023-02-01T14:21:54;100452.97;;;9.31;42.55
75697;BME280;64312;44.738;20.612;2023-02-01T14:26:56;100453.84;;;9.46;42.86
75697;BME280;64312;44.738;20.612;2023-02-01T14:29:29;100449.97;;;9.48;42.77
75697;BME280;64312;44.738;20.612;2023-02-01T14:37:22;100425.31;;;9.45;43.95
75697;BME280;64312;44.738;20.612;2023-02-01T14:40:01;100418.81;;;9.39;44.55
75697;BME280;64312;44.738;20.612;2023-02-01T14:47:52;100423.97;;;9.26;44.38
75697;BME280;64312;44.738;20.612;2023-02-01T14:53:05;100427.44;;;9.12;44.52
75697;BME280;64312;44.738;20.612;2023-02-01T15:01:03;100405.97;;;8.89;44.78
75697;BME280;64312;44.738;20.612;2023-02-01T15:08:45;100402.94;;;8.61;45.71
75697;BME280;64312;44.738;20.612;2023-02-01T15:11:15;100408.00;;;8.56;45.44
75697;BME280;64312;44.738;20.612;2023-02-01T15:13:51;100406.91;;;8.50;45.77
75697;BME280;64312;44.738;20.612;2023-02-01T15:16:20;100405.06;;;8.43;45.98
75697;BME280;64312;44.738;20.612;2023-02-01T15:18:47;100411.13;;;8.36;46.48
75697;BME280;64312;44.738;20.612;2023-02-01T15:23:42;100415.19;;;8.24;46.00